Ferrol, Spain
Current Conditions -  °F | °C
As of 2:00 PM on Thursday 30 Oct 2014 (Local Time) from LECO Reporting Station
Clear Clear  
Wind Chill: 79°   Ceiling: Unl
Heat Index: 80°   Visibility: 6mi
Dew Point: 57°   Wind: 12mph
Humidity: 47%   Direction: 180°S
Pressure: 30.03"   Gusts: NA
Location:  43.48°N, 8.24°W
Report Text: LECO 301300Z 18010KT 140V230 CAVOK 26/14 Q1017 NOSIG
Loading
Personal Weather Stations






























Interactive Weather Map
Tropical Storm Tracking
New forecast layout! Learn more

10-Day Weather Forecast

Advertisements
Track Severe Weather on mobile